Time;durP1;ratioP1;P1;durP2;ratioP2;P2;SDS_P1;SDS_P2;PMS_P1;PMS_P2;Temp;Humidity;BMP_temperature;BMP_pressure;BME280_temperature;BME280_humidity;BME280_pressure;Samples;Min_cycle;Max_cycle;Signal;HPM_P1;HPM_P2
2024/01/22 00:01:42;;;;;;;33.10;14.20;;;;;;;3.24;44.23;102140.41;108218;1251;60392;-67
2024/01/22 00:04:09;;;;;;;30.40;14.00;;;;;;;3.32;44.05;102134.89;108291;1251;73717;-66
2024/01/22 00:06:36;;;;;;;27.90;14.20;;;;;;;3.44;43.95;102133.27;108220;1251;70156;-68
2024/01/22 00:09:04;;;;;;;30.50;13.80;;;;;;;3.37;44.09;102134.67;108231;1251;73106;-67
2024/01/22 00:11:30;;;;;;;28.40;13.10;;;;;;;3.26;44.23;102138.02;108257;1251;63288;-67
2024/01/22 00:13:57;;;;;;;27.70;13.50;;;;;;;3.28;44.25;102137.39;108218;1251;59088;-66
2024/01/22 00:16:24;;;;;;;30.90;14.10;;;;;;;3.33;44.35;102133.86;108222;1251;73584;-67
2024/01/22 00:18:51;;;;;;;34.30;14.30;;;;;;;3.32;44.32;102139.06;108206;1251;70351;-65
2024/01/22 00:21:17;;;;;;;36.80;13.90;;;;;;;3.39;44.46;102139.04;108350;1251;73003;-66
2024/01/22 00:23:44;;;;;;;53.00;19.60;;;;;;;3.33;44.48;102134.04;108309;1251;61898;-66
2024/01/22 00:26:12;;;;;;;30.80;13.80;;;;;;;3.22;44.74;102128.71;108248;1251;60155;-67
2024/01/22 00:28:39;;;;;;;29.10;13.90;;;;;;;3.29;44.69;102127.34;108269;1251;73561;-68
2024/01/22 00:31:06;;;;;;;27.90;12.70;;;;;;;3.12;45.07;102122.06;108359;1251;68941;-66
2024/01/22 00:33:32;;;;;;;28.80;12.90;;;;;;;3.02;45.37;102119.02;108209;1252;73358;-66
2024/01/22 00:35:59;;;;;;;31.20;12.90;;;;;;;3.07;45.30;102119.34;108298;1253;61762;-66
2024/01/22 00:38:26;;;;;;;24.50;13.40;;;;;;;3.12;45.00;102118.94;108256;1252;61076;-66
2024/01/22 00:40:53;;;;;;;43.70;18.70;;;;;;;3.20;44.90;102122.08;108264;1252;74090;-67
2024/01/22 00:43:19;;;;;;;28.10;14.20;;;;;;;3.32;44.76;102124.98;108227;1253;70526;-66
2024/01/22 00:45:46;;;;;;;21.40;10.90;;;;;;;3.25;44.93;102118.03;108236;1252;73060;-66
2024/01/22 00:48:13;;;;;;;31.70;14.60;;;;;;;3.21;44.83;102116.19;108231;1252;61827;-66
2024/01/22 00:50:39;;;;;;;27.10;13.50;;;;;;;3.15;44.86;102113.61;108227;1252;60345;-66
2024/01/22 00:53:06;;;;;;;22.70;11.90;;;;;;;3.04;45.18;102113.70;108227;1253;74214;-66
2024/01/22 00:55:33;;;;;;;26.10;11.70;;;;;;;3.04;45.13;102115.43;108219;1253;70694;-67
2024/01/22 00:58:00;;;;;;;22.40;11.10;;;;;;;2.96;45.00;102119.89;108255;1253;72521;-66
2024/01/22 01:00:27;;;;;;;25.20;12.20;;;;;;;2.84;45.00;102114.73;108239;1253;60858;-66
2024/01/22 01:02:53;;;;;;;25.50;12.10;;;;;;;2.90;45.01;102114.71;108220;1256;60358;-66
2024/01/22 01:05:21;;;;;;;21.80;12.10;;;;;;;3.15;44.97;102119.17;108223;1253;74343;-67
2024/01/22 01:07:47;;;;;;;25.00;11.30;;;;;;;3.06;45.19;102117.23;108227;1253;69774;-68
2024/01/22 01:10:14;;;;;;;23.90;11.80;;;;;;;2.94;45.14;102119.52;108262;1252;73061;-66
2024/01/22 01:12:41;;;;;;;24.10;10.20;;;;;;;3.09;45.16;102114.85;108291;1252;62173;-66
2024/01/22 01:15:09;;;;;;;25.10;12.00;;;;;;;3.10;45.06;102124.96;108294;1252;60310;-67
2024/01/22 01:17:36;;;;;;;25.80;11.90;;;;;;;3.04;45.19;102129.85;108367;1252;73811;-66
2024/01/22 01:20:04;;;;;;;28.70;12.60;;;;;;;3.00;45.54;102128.51;108306;1254;69329;-67
2024/01/22 01:22:31;;;;;;;23.40;12.10;;;;;;;3.02;45.34;102127.88;108264;1256;72759;-67
2024/01/22 01:24:58;;;;;;;25.20;12.40;;;;;;;3.11;45.27;102130.19;108229;1252;60507;-67
2024/01/22 01:27:25;;;;;;;26.00;11.70;;;;;;;3.03;45.57;102130.50;108292;1252;60380;-68
2024/01/22 01:29:52;;;;;;;26.80;11.90;;;;;;;3.16;45.48;102130.32;108277;1252;73738;-67
2024/01/22 01:32:19;;;;;;;24.30;11.70;;;;;;;3.19;45.55;102134.39;108270;1251;70166;-66
2024/01/22 01:34:46;;;;;;;29.00;12.80;;;;;;;3.18;45.62;102143.39;108286;1254;73042;-67
2024/01/22 01:37:13;;;;;;;22.80;11.00;;;;;;;3.25;45.55;102143.89;108284;1251;61061;-66
2024/01/22 01:39:40;;;;;;;22.20;10.40;;;;;;;3.25;45.45;102143.56;108231;1251;60536;-66
2024/01/22 01:42:07;;;;;;;25.50;11.90;;;;;;;3.35;45.36;102137.90;108344;1251;72762;-66
2024/01/22 01:44:36;;;;;;;23.10;11.10;;;;;;;3.43;45.42;102137.92;108322;1251;70188;-66
2024/01/22 01:47:06;;;;;;;23.10;11.50;;;;;;;3.47;45.20;102138.89;108265;1251;72872;-67
2024/01/22 01:49:33;;;;;;;26.10;12.90;;;;;;;3.43;45.08;102141.05;108269;1251;61114;-66
2024/01/22 01:52:00;;;;;;;23.50;11.50;;;;;;;3.32;45.30;102144.77;108285;1251;60375;-66
2024/01/22 01:54:27;;;;;;;20.10;10.40;;;;;;;3.32;45.28;102136.77;108254;1251;74534;-66
2024/01/22 01:56:54;;;;;;;25.30;11.50;;;;;;;3.29;45.40;102133.77;108254;1251;70670;-67
2024/01/22 01:59:20;;;;;;;24.40;11.90;;;;;;;3.42;45.23;102129.73;108128;1257;73252;-67
2024/01/22 02:01:47;;;;;;;22.50;11.50;;;;;;;3.40;45.26;102120.48;108264;1251;61800;-67
2024/01/22 02:04:13;;;;;;;23.90;11.80;;;;;;;3.34;45.53;102114.27;108315;1251;60502;-67
2024/01/22 02:06:40;;;;;;;27.80;11.00;;;;;;;3.24;45.57;102111.94;108313;1251;73909;-67
2024/01/22 02:09:07;;;;;;;22.50;10.80;;;;;;;3.33;45.68;102115.63;108280;1251;70911;-66
2024/01/22 02:11:34;;;;;;;21.80;10.30;;;;;;;3.33;45.75;102115.48;108282;1255;73414;-66
2024/01/22 02:14:01;;;;;;;23.70;11.20;;;;;;;3.39;45.79;102111.23;108321;1251;61957;-67
2024/01/22 02:16:27;;;;;;;23.50;11.50;;;;;;;3.44;45.69;102109.64;108289;1255;60292;-67
2024/01/22 02:18:54;;;;;;;24.20;12.30;;;;;;;3.51;45.66;102115.55;108122;1251;148504;-67
2024/01/22 02:23:45;;;;;;;24.80;11.80;;;;;;;1.42;50.78;102123.73;104973;1289;600903;-67
2024/01/22 02:26:13;;;;;;;27.90;11.60;;;;;;;2.79;46.96;102121.20;107392;1263;60742;-66
2024/01/22 02:28:40;;;;;;;26.20;12.50;;;;;;;2.98;46.63;102125.70;107377;1263;59109;-66
2024/01/22 02:31:08;;;;;;;27.90;12.00;;;;;;;3.08;46.30;102126.30;107340;1266;72259;-67
2024/01/22 02:33:36;;;;;;;22.10;11.40;;;;;;;2.72;46.60;102127.27;107202;1266;69044;-66
2024/01/22 02:36:04;;;;;;;26.50;11.50;;;;;;;2.63;46.59;102127.88;107419;1263;70449;-66
2024/01/22 02:38:32;;;;;;;25.50;11.70;;;;;;;2.76;46.55;102132.72;107481;1258;187261;-67
2024/01/22 02:40:59;;;;;;;24.50;11.00;;;;;;;2.83;46.61;102137.44;107569;1258;58780;-67
2024/01/22 02:43:27;;;;;;;23.80;11.60;;;;;;;2.82;46.90;102139.66;107540;1261;72355;-66
2024/01/22 02:45:54;;;;;;;20.60;10.00;;;;;;;2.87;46.94;102140.48;107590;1258;69549;-67
2024/01/22 02:48:22;;;;;;;26.80;11.40;;;;;;;2.82;47.13;102142.27;108172;1256;72682;-67
2024/01/22 02:50:50;;;;;;;23.70;11.90;;;;;;;2.77;47.12;102142.85;108120;1257;59896;-67
2024/01/22 02:53:17;;;;;;;25.90;12.30;;;;;;;2.94;47.02;102142.93;108117;1251;60069;-67
2024/01/22 02:55:44;;;;;;;27.40;12.00;;;;;;;3.00;46.84;102145.01;108136;1251;71568;-67
2024/01/22 02:58:12;;;;;;;27.90;11.90;;;;;;;2.97;46.95;102140.92;108158;1256;68849;-67
2024/01/22 03:00:39;;;;;;;27.00;12.00;;;;;;;3.01;46.95;102144.66;108146;1252;71607;-66
2024/01/22 03:03:08;;;;;;;30.70;13.90;;;;;;;2.99;46.76;102139.07;108156;1251;59616;-66
2024/01/22 03:05:36;;;;;;;26.40;12.20;;;;;;;2.95;46.80;102135.15;108210;1256;59501;-66
2024/01/22 03:08:04;;;;;;;27.30;13.00;;;;;;;2.97;46.81;102131.58;108141;1253;71751;-66
2024/01/22 03:10:32;;;;;;;31.00;15.00;;;;;;;2.89;46.98;102130.14;108284;1251;69914;-67
2024/01/22 03:12:59;;;;;;;25.70;12.30;;;;;;;2.78;47.25;102130.69;108165;1254;70817;-66
2024/01/22 03:15:27;;;;;;;32.50;14.30;;;;;;;2.71;47.39;102127.57;108142;1256;60388;-66
2024/01/22 03:17:55;;;;;;;24.90;11.90;;;;;;;2.53;47.45;102128.45;108151;1256;59978;-67
2024/01/22 03:20:23;;;;;;;35.40;14.60;;;;;;;2.38;48.01;102127.17;108158;1251;73027;-67
2024/01/22 03:22:50;;;;;;;38.60;15.20;;;;;;;2.57;47.73;102121.98;108197;1251;68046;-67
2024/01/22 03:25:18;;;;;;;38.00;16.80;;;;;;;2.60;47.76;102119.48;108244;1256;72060;-67
2024/01/22 03:27:45;;;;;;;32.10;13.70;;;;;;;2.65;47.69;102114.56;108220;1256;61103;-67
2024/01/22 03:30:13;;;;;;;28.70;12.60;;;;;;;2.48;47.88;102117.23;108139;1256;59576;-67
2024/01/22 03:32:41;;;;;;;29.60;12.80;;;;;;;2.38;48.09;102126.13;108151;1257;73002;-66
2024/01/22 03:35:08;;;;;;;24.20;11.70;;;;;;;2.40;48.05;102120.80;108136;1254;68472;-67
2024/01/22 03:37:36;;;;;;;23.80;11.90;;;;;;;2.33;48.07;102127.22;108101;1254;72643;-65
2024/01/22 03:40:04;;;;;;;25.70;12.90;;;;;;;2.22;48.40;102134.15;108179;1254;62115;-67
2024/01/22 03:42:32;;;;;;;26.20;13.30;;;;;;;2.35;48.07;102137.66;108159;1252;60064;-66
2024/01/22 03:45:00;;;;;;;30.70;12.30;;;;;;;2.34;48.24;102141.44;108179;1258;73018;-67
2024/01/22 03:47:27;;;;;;;25.50;13.00;;;;;;;2.35;48.48;102133.49;108123;1257;69536;-66
2024/01/22 03:49:55;;;;;;;29.60;13.50;;;;;;;2.26;48.62;102125.96;108138;1257;71409;-66
2024/01/22 03:52:23;;;;;;;28.10;13.80;;;;;;;2.31;48.63;102122.45;108239;1254;60439;-66
2024/01/22 03:54:50;;;;;;;25.50;12.70;;;;;;;2.46;48.52;102120.46;108060;1254;60139;-66
2024/01/22 03:57:17;;;;;;;28.30;14.00;;;;;;;2.48;48.55;102121.23;108121;1254;73169;-67
2024/01/22 03:59:46;;;;;;;31.30;14.00;;;;;;;2.54;48.44;102116.17;108274;1254;69033;-68
2024/01/22 04:02:14;;;;;;;27.00;12.60;;;;;;;2.37;48.53;102115.00;108191;1254;71461;-68
2024/01/22 04:04:42;;;;;;;30.90;15.60;;;;;;;2.45;48.43;102118.19;108159;1259;60374;-66
2024/01/22 04:07:09;;;;;;;28.80;15.70;;;;;;;2.54;48.37;102127.27;108253;1252;59618;-67
2024/01/22 04:09:37;;;;;;;36.60;15.40;;;;;;;2.61;48.31;102126.11;108118;1254;73221;-67
2024/01/22 04:12:05;;;;;;;32.90;15.30;;;;;;;2.62;48.43;102131.32;108094;1254;69940;-67
2024/01/22 04:14:32;;;;;;;29.00;13.80;;;;;;;2.75;48.04;102126.64;108108;1253;72702;-67
2024/01/22 04:17:00;;;;;;;29.10;14.50;;;;;;;2.70;48.32;102122.35;108120;1254;60072;-68
2024/01/22 04:19:27;;;;;;;37.80;16.10;;;;;;;2.65;48.19;102120.64;108159;1254;59474;-67
2024/01/22 04:21:55;;;;;;;36.60;16.20;;;;;;;2.65;48.00;102117.35;108130;1257;73350;-67
2024/01/22 04:24:24;;;;;;;33.20;15.90;;;;;;;2.66;48.28;102117.89;108191;1254;70276;-67
2024/01/22 04:26:52;;;;;;;36.10;17.20;;;;;;;2.65;48.29;102128.13;108094;1254;71253;-66
2024/01/22 04:29:19;;;;;;;34.10;16.00;;;;;;;2.72;48.28;102131.41;108048;1253;60244;-66
2024/01/22 04:31:47;;;;;;;43.10;18.40;;;;;;;2.81;48.16;102132.70;108111;1253;59468;-66
2024/01/22 04:34:14;;;;;;;36.00;17.50;;;;;;;2.64;48.32;102129.29;108141;1255;72059;-67
2024/01/22 04:36:42;;;;;;;37.50;18.80;;;;;;;2.50;48.81;102132.20;108270;1254;70107;-67
2024/01/22 04:39:09;;;;;;;38.90;18.30;;;;;;;2.68;48.51;102135.84;108214;1254;72673;-66
2024/01/22 04:41:37;;;;;;;39.40;18.20;;;;;;;2.76;48.52;102135.34;108110;1254;61738;-66
2024/01/22 04:44:05;;;;;;;39.40;17.10;;;;;;;2.65;48.69;102124.45;108057;1254;59005;-66
2024/01/22 04:46:32;;;;;;;35.90;16.70;;;;;;;2.51;48.68;102121.65;108089;1254;71106;-66
2024/01/22 04:49:00;;;;;;;37.70;16.40;;;;;;;2.54;48.59;102122.08;108116;1254;69938;-69
2024/01/22 04:51:27;;;;;;;37.20;16.60;;;;;;;2.66;48.50;102114.77;108151;1254;71203;-67
2024/01/22 04:53:55;;;;;;;44.70;17.70;;;;;;;2.60;48.47;102113.40;108115;1254;61668;-67
2024/01/22 04:56:22;;;;;;;34.20;17.40;;;;;;;2.78;48.32;102106.23;108058;1253;60031;-67
2024/01/22 04:58:50;;;;;;;38.20;17.70;;;;;;;2.71;48.30;102106.23;108100;1254;72275;-67
2024/01/22 05:01:17;;;;;;;43.40;18.60;;;;;;;2.44;48.62;102099.06;108100;1254;69201;-68
2024/01/22 05:03:45;;;;;;;35.80;16.60;;;;;;;2.65;48.25;102092.56;108074;1254;71400;-67
2024/01/22 05:06:13;;;;;;;31.00;13.60;;;;;;;2.77;48.01;102084.37;108074;1254;60387;-68
2024/01/22 05:08:40;;;;;;;38.50;15.50;;;;;;;2.57;48.33;102088.17;108130;1254;60050;-68
2024/01/22 05:11:08;;;;;;;27.90;12.70;;;;;;;2.60;48.39;102088.25;108055;1259;73015;-65
2024/01/22 05:13:35;;;;;;;43.80;19.40;;;;;;;2.52;48.49;102089.59;108089;1254;70350;-67
2024/01/22 05:16:04;;;;;;;51.00;19.90;;;;;;;2.48;48.64;102091.04;108133;1254;72648;-66
2024/01/22 05:18:31;;;;;;;43.80;16.90;;;;;;;2.49;48.66;102092.98;108131;1254;60473;-66
2024/01/22 05:20:59;;;;;;;40.70;18.50;;;;;;;2.43;48.65;102094.04;108018;1260;60052;-66
2024/01/22 05:23:27;;;;;;;39.90;19.10;;;;;;;2.71;48.29;102092.54;108256;1254;72029;-66
2024/01/22 05:25:55;;;;;;;38.80;19.10;;;;;;;2.70;48.30;102096.33;108122;1259;69270;-67
2024/01/22 05:28:22;;;;;;;37.00;15.60;;;;;;;2.49;49.07;102098.52;108085;1254;71422;-66
2024/01/22 05:30:50;;;;;;;35.50;18.00;;;;;;;2.67;48.67;102095.38;108078;1253;60384;-66
2024/01/22 05:33:17;;;;;;;25.40;12.50;;;;;;;2.64;48.45;102092.34;107996;1254;59769;-67
2024/01/22 05:35:47;;;;;;;39.70;16.10;;;;;;;2.48;48.56;102096.42;108068;1258;72179;-67
2024/01/22 05:38:14;;;;;;;52.10;18.70;;;;;;;2.52;48.45;102098.25;108020;1254;69211;-67
2024/01/22 05:40:42;;;;;;;41.60;17.90;;;;;;;2.79;47.93;102092.91;108022;1254;72622;-67
2024/01/22 05:43:09;;;;;;;40.20;18.40;;;;;;;3.09;47.31;102092.11;107990;1254;62089;-67
2024/01/22 05:45:37;;;;;;;39.50;17.20;;;;;;;3.08;47.40;102095.21;107940;1254;59108;-67
2024/01/22 05:48:06;;;;;;;37.00;16.30;;;;;;;2.90;48.05;102094.77;108039;1254;72048;-66
2024/01/22 05:50:34;;;;;;;40.80;20.40;;;;;;;2.76;48.13;102098.75;108050;1258;71374;-66
2024/01/22 05:53:02;;;;;;;39.00;18.50;;;;;;;2.78;48.07;102101.55;108074;1254;72445;-67
2024/01/22 05:55:29;;;;;;;46.10;20.10;;;;;;;2.84;47.93;102098.42;108027;1257;60456;-66
2024/01/22 05:57:57;;;;;;;34.50;16.50;;;;;;;2.88;47.81;102100.27;107869;1254;60218;-66
2024/01/22 06:00:24;;;;;;;50.10;18.40;;;;;;;2.98;47.62;102100.70;108125;1254;71777;-67
2024/01/22 06:02:52;;;;;;;42.60;20.40;;;;;;;2.99;47.54;102099.34;108027;1254;70254;-66
2024/01/22 06:05:20;;;;;;;45.80;20.50;;;;;;;3.04;47.38;102095.48;107970;1257;72446;-67
2024/01/22 06:07:48;;;;;;;46.90;21.00;;;;;;;3.04;47.30;102090.98;107948;1254;60371;-66
2024/01/22 06:10:15;;;;;;;41.70;19.00;;;;;;;3.00;47.35;102090.52;107956;1254;59572;-66
2024/01/22 06:12:44;;;;;;;41.90;16.30;;;;;;;3.02;47.22;102085.88;108002;1254;72324;-66
2024/01/22 06:15:12;;;;;;;38.90;18.20;;;;;;;3.10;47.27;102082.43;107969;1254;69173;-66
2024/01/22 06:17:39;;;;;;;41.00;18.40;;;;;;;2.73;47.80;102079.23;107932;1254;71538;-66
2024/01/22 06:20:09;;;;;;;39.80;18.60;;;;;;;2.67;47.98;102078.71;107915;1257;60402;-66
2024/01/22 06:22:36;;;;;;;40.90;16.80;;;;;;;2.66;48.11;102073.68;108123;1253;59005;-67
2024/01/22 06:25:06;;;;;;;41.50;18.50;;;;;;;2.41;48.54;102074.55;107978;1254;72835;-68
2024/01/22 06:27:34;;;;;;;47.10;20.60;;;;;;;2.52;48.56;102065.33;107995;1254;69015;-66
2024/01/22 06:30:03;;;;;;;37.20;16.20;;;;;;;2.68;48.21;102061.41;107988;1254;71661;-66
2024/01/22 06:32:30;;;;;;;22.10;11.90;;;;;;;2.67;48.05;102062.09;108017;1254;60722;-68
2024/01/22 06:34:58;;;;;;;38.40;18.60;;;;;;;2.65;48.23;102060.64;108015;1253;59126;-66
2024/01/22 06:37:26;;;;;;;40.60;16.30;;;;;;;2.64;48.24;102059.05;108107;1254;73852;-67
2024/01/22 06:39:53;;;;;;;33.70;16.10;;;;;;;2.91;48.03;102058.52;108133;1253;70087;-67
2024/01/22 06:42:21;;;;;;;40.40;17.10;;;;;;;2.96;47.62;102057.42;108119;1253;72765;-67
2024/01/22 06:45:00;;;;;;;52.20;20.70;;;;;;;2.87;47.68;102049.92;108139;1254;60904;-67
2024/01/22 06:47:30;;;;;;;36.30;17.20;;;;;;;3.06;47.31;102046.94;108231;1257;60310;-67
2024/01/22 06:49:57;;;;;;;44.10;20.10;;;;;;;3.00;47.30;102051.13;108107;1254;72592;-67
2024/01/22 06:52:25;;;;;;;49.50;20.00;;;;;;;2.99;47.58;102058.20;107997;1254;70049;-68
2024/01/22 06:54:53;;;;;;;51.00;21.80;;;;;;;3.05;47.40;102057.85;108110;1257;71465;-68
2024/01/22 06:57:20;;;;;;;48.10;22.40;;;;;;;3.21;47.17;102061.70;108051;1254;61373;-68
2024/01/22 06:59:48;;;;;;;46.20;20.70;;;;;;;3.27;46.87;102068.44;108090;1254;59211;-66
2024/01/22 07:02:15;;;;;;;65.70;26.90;;;;;;;3.36;46.80;102064.82;108252;1253;73913;-69
2024/01/22 07:04:44;;;;;;;51.40;20.30;;;;;;;3.26;46.54;102068.95;108090;1254;70612;-67
2024/01/22 07:07:13;;;;;;;29.80;15.30;;;;;;;3.37;46.52;102075.09;108038;1253;71458;-68
2024/01/22 07:09:40;;;;;;;39.90;19.10;;;;;;;3.39;46.34;102077.23;108031;1253;61984;-67
2024/01/22 07:12:08;;;;;;;25.90;13.30;;;;;;;3.34;46.40;102076.40;108020;1254;60395;-67
2024/01/22 07:14:36;;;;;;;25.30;13.00;;;;;;;3.27;46.38;102079.36;108062;1254;73613;-67
2024/01/22 07:17:04;;;;;;;36.80;16.40;;;;;;;3.24;46.52;102082.79;108128;1254;68773;-68
2024/01/22 07:19:31;;;;;;;33.90;15.90;;;;;;;3.35;46.42;102084.09;108176;1254;72715;-68
2024/01/22 07:21:58;;;;;;;32.80;16.40;;;;;;;3.18;46.55;102088.70;108150;1254;60434;-67
2024/01/22 07:24:26;;;;;;;30.70;15.40;;;;;;;3.36;46.14;102087.23;108093;1254;60441;-67
2024/01/22 07:26:54;;;;;;;37.60;17.30;;;;;;;3.43;46.44;102096.77;108168;1254;74301;-67
2024/01/22 07:29:22;;;;;;;37.70;16.50;;;;;;;3.31;46.33;102111.58;108160;1253;68232;-67
2024/01/22 07:31:50;;;;;;;32.80;16.10;;;;;;;3.34;46.28;102116.02;108080;1251;72702;-67
2024/01/22 07:34:17;;;;;;;46.10;20.20;;;;;;;3.41;46.28;102117.23;108191;1254;61839;-67
2024/01/22 07:36:45;;;;;;;42.90;15.40;;;;;;;3.43;46.19;102119.34;108201;1251;60296;-67
2024/01/22 07:39:13;;;;;;;36.30;16.50;;;;;;;3.47;46.22;102123.09;108207;1251;73999;-67
2024/01/22 07:41:40;;;;;;;35.30;15.90;;;;;;;3.52;45.95;102122.70;108108;1251;68478;-67
2024/01/22 07:44:08;;;;;;;33.30;17.20;;;;;;;3.67;45.76;102124.59;108131;1251;71459;-65
2024/01/22 07:46:36;;;;;;;32.80;16.30;;;;;;;3.70;45.65;102116.84;108071;1251;60498;-66
2024/01/22 07:49:03;;;;;;;34.20;16.40;;;;;;;3.88;45.72;102119.52;108043;1251;60436;-67
2024/01/22 07:51:31;;;;;;;37.50;18.10;;;;;;;3.99;45.67;102121.67;108097;1251;73838;-66
2024/01/22 07:53:58;;;;;;;33.50;16.60;;;;;;;3.91;45.41;102122.70;108368;1251;70047;-67
2024/01/22 07:56:26;;;;;;;43.90;19.60;;;;;;;3.95;45.30;102124.72;108164;1253;71776;-66
2024/01/22 07:58:53;;;;;;;41.50;19.90;;;;;;;4.10;45.25;102118.26;108068;1254;60497;-66
2024/01/22 08:01:21;;;;;;;35.20;14.80;;;;;;;4.00;45.34;102113.52;108208;1251;60460;-66
2024/01/22 08:03:48;;;;;;;55.60;25.00;;;;;;;3.64;45.50;102110.81;108216;1251;72610;-66
2024/01/22 08:06:16;;;;;;;40.20;20.40;;;;;;;3.93;45.48;102111.80;108162;1257;69858;-67
2024/01/22 08:08:44;;;;;;;40.00;18.90;;;;;;;3.91;45.58;102115.95;108193;1251;71387;-67
2024/01/22 08:11:12;;;;;;;49.70;22.70;;;;;;;4.17;45.17;102110.39;108196;1254;60422;-67
2024/01/22 08:13:40;;;;;;;45.80;20.30;;;;;;;4.03;44.73;102101.42;108162;1251;60491;-67
2024/01/22 08:16:08;;;;;;;28.00;12.00;;;;;;;3.96;44.91;102095.38;108163;1251;73836;-66
2024/01/22 08:18:35;;;;;;;23.30;11.60;;;;;;;3.79;45.14;102098.80;108132;1251;68973;-66
2024/01/22 08:21:03;;;;;;;38.00;18.60;;;;;;;3.89;45.06;102095.21;108117;1251;71421;-66
2024/01/22 08:23:31;;;;;;;34.70;18.00;;;;;;;4.20;44.88;102091.70;108224;1254;60948;-67
2024/01/22 08:25:58;;;;;;;25.70;12.10;;;;;;;4.19;44.95;102093.60;108246;1251;60325;-67
2024/01/22 08:28:26;;;;;;;34.20;16.30;;;;;;;4.07;44.89;102092.98;108139;1251;72599;-67
2024/01/22 08:30:55;;;;;;;36.00;17.50;;;;;;;4.26;44.79;102089.92;108120;1251;70265;-67
2024/01/22 08:33:23;;;;;;;28.80;14.10;;;;;;;4.19;44.95;102087.68;108035;1251;71335;-67
2024/01/22 08:35:51;;;;;;;18.60;8.30;;;;;;;4.16;44.96;102086.23;108085;1254;60388;-67
2024/01/22 08:38:20;;;;;;;25.20;12.80;;;;;;;4.06;44.95;102091.56;108202;1251;61120;-67
2024/01/22 08:40:47;;;;;;;27.30;13.70;;;;;;;4.13;44.65;102086.52;108113;1257;74737;-67
2024/01/22 08:43:15;;;;;;;32.60;15.10;;;;;;;4.20;44.73;102089.61;108091;1257;69465;-67
2024/01/22 08:45:42;;;;;;;26.00;12.30;;;;;;;4.27;44.31;102091.30;108063;1253;71626;-67
2024/01/22 08:48:10;;;;;;;32.80;15.10;;;;;;;4.45;44.21;102081.76;108066;1251;61739;-67
2024/01/22 08:50:38;;;;;;;31.20;15.50;;;;;;;4.47;44.34;102079.54;108179;1251;60427;-67
2024/01/22 08:53:06;;;;;;;33.80;16.10;;;;;;;4.24;44.70;102074.74;108109;1251;73913;-67
2024/01/22 08:55:33;;;;;;;36.50;16.50;;;;;;;4.21;44.95;102074.17;108102;1251;69366;-67
2024/01/22 08:58:01;;;;;;;32.70;15.90;;;;;;;4.31;44.70;102072.45;108140;1251;74934;-67
2024/01/22 09:00:28;;;;;;;25.10;12.70;;;;;;;4.36;44.76;102065.23;108127;1253;63771;-67
2024/01/22 09:02:56;;;;;;;39.80;16.40;;;;;;;4.26;44.87;102063.82;108175;1251;60294;-65
2024/01/22 09:05:24;;;;;;;34.80;16.40;;;;;;;4.19;45.02;102052.22;108070;1251;73911;-64
2024/01/22 09:07:51;;;;;;;30.40;12.40;;;;;;;4.09;44.94;102048.88;108136;1251;70469;-67
2024/01/22 09:10:22;;;;;;;24.70;12.10;;;;;;;3.86;45.37;102046.83;108230;1252;71328;-67
2024/01/22 09:12:50;;;;;;;25.80;13.30;;;;;;;3.71;45.73;102037.48;108177;1251;60933;-67
2024/01/22 09:15:17;;;;;;;26.00;13.10;;;;;;;3.67;45.62;102030.45;108136;1251;60465;-66
2024/01/22 09:17:46;;;;;;;28.90;12.60;;;;;;;3.84;45.37;102021.61;108100;1251;72752;-67
2024/01/22 09:20:15;;;;;;;29.60;12.70;;;;;;;3.88;45.20;102020.11;108081;1251;68726;-67
2024/01/22 09:22:43;;;;;;;27.70;13.70;;;;;;;4.11;45.00;102009.10;108068;1253;73188;-68
2024/01/22 09:25:11;;;;;;;29.70;13.40;;;;;;;3.80;45.49;102000.50;108064;1251;60467;-68
2024/01/22 09:27:40;;;;;;;30.00;14.40;;;;;;;3.84;45.47;101991.38;108154;1251;60400;-68
2024/01/22 09:30:08;;;;;;;31.10;15.40;;;;;;;3.90;45.30;101991.49;108045;1251;73827;-68
2024/01/22 09:32:36;;;;;;;22.20;11.10;;;;;;;3.83;45.29;101990.99;108150;1251;70439;-68
2024/01/22 09:35:04;;;;;;;39.20;18.10;;;;;;;3.89;45.44;101998.07;108051;1253;71456;-67
2024/01/22 09:37:32;;;;;;;30.70;15.40;;;;;;;3.91;45.39;101987.51;108040;1251;61686;-67
2024/01/22 09:39:59;;;;;;;33.30;16.70;;;;;;;4.12;45.38;101988.45;108026;1251;59413;-67
2024/01/22 09:42:27;;;;;;;31.10;15.80;;;;;;;4.22;45.11;101980.82;108069;1251;73776;-67
2024/01/22 09:44:54;;;;;;;30.30;14.90;;;;;;;4.29;45.05;101970.84;108095;1251;68426;-67
2024/01/22 09:47:22;;;;;;;28.00;11.80;;;;;;;4.26;44.89;101961.59;108028;1251;72677;-67
2024/01/22 09:49:49;;;;;;;25.00;11.50;;;;;;;4.00;44.98;101962.33;108033;1251;61910;-67
2024/01/22 09:52:17;;;;;;;33.60;15.60;;;;;;;4.27;44.82;101961.77;108094;1257;60387;-67
2024/01/22 09:54:45;;;;;;;25.40;11.30;;;;;;;4.43;43.79;101953.01;108203;1251;73946;-67
2024/01/22 09:57:17;;;;;;;37.20;15.40;;;;;;;4.18;44.30;101951.70;108051;1251;70581;-67
2024/01/22 09:59:45;;;;;;;25.10;12.50;;;;;;;4.23;44.14;101939.63;108041;1251;71434;-67
2024/01/22 10:02:14;;;;;;;28.40;14.20;;;;;;;4.29;44.11;101929.98;108093;1252;62745;-67
2024/01/22 10:04:43;;;;;;;26.20;13.20;;;;;;;4.49;43.59;101926.50;108082;1253;60530;-67
2024/01/22 10:07:12;;;;;;;29.50;12.50;;;;;;;4.40;43.46;101925.84;108106;1252;76116;-67
2024/01/22 10:09:39;;;;;;;26.10;12.60;;;;;;;4.20;44.00;101930.02;108113;1253;69665;-67
2024/01/22 10:12:07;;;;;;;14.80;8.70;;;;;;;4.44;43.74;101932.70;108066;1253;73892;-65
2024/01/22 10:14:37;;;;;;;27.40;14.40;;;;;;;4.32;43.63;101940.83;108065;1253;60544;-66
2024/01/22 10:17:20;;;;;;;27.40;13.80;;;;;;;4.18;43.73;101942.32;108145;1252;60448;-66
2024/01/22 10:19:49;;;;;;;26.00;13.50;;;;;;;4.41;43.52;101939.61;108118;1253;74008;-66
2024/01/22 10:22:18;;;;;;;27.70;14.90;;;;;;;4.42;43.54;101933.19;108195;1253;71348;-67
2024/01/22 10:25:04;;;;;;;31.70;16.10;;;;;;;4.73;43.52;101926.89;108075;1253;73506;-67
2024/01/22 10:27:32;;;;;;;22.70;11.10;;;;;;;4.85;42.94;101928.66;108019;1253;64052;-65
2024/01/22 10:30:14;;;;;;;25.60;14.60;;;;;;;5.15;42.64;101917.77;107978;1253;59088;-65
2024/01/22 10:32:41;;;;;;;25.90;12.50;;;;;;;5.37;41.90;101916.33;108108;1251;73203;-67
2024/01/22 10:35:32;;;;;;;25.20;13.70;;;;;;;5.63;41.37;101907.06;108221;1251;70423;-66
2024/01/22 10:38:06;;;;;;;25.30;12.30;;;;;;;6.19;40.20;101901.23;108087;1251;72727;-67
2024/01/22 10:40:34;;;;;;;30.50;13.40;;;;;;;6.11;40.44;101896.27;108080;1251;60381;-67
2024/01/22 10:43:18;;;;;;;28.40;13.30;;;;;;;5.99;40.51;101896.83;108086;1251;60262;-70
2024/01/22 10:45:49;;;;;;;30.20;16.20;;;;;;;5.82;41.40;101889.33;108100;1253;72961;-67
2024/01/22 10:48:20;;;;;;;31.90;15.80;;;;;;;6.04;41.81;101883.48;108168;1251;69752;-66
2024/01/22 10:51:05;;;;;;;32.70;13.90;;;;;;;6.16;41.16;101885.51;108147;1251;70561;-67
2024/01/22 10:53:34;;;;;;;31.30;14.20;;;;;;;5.81;41.03;101885.66;108146;1257;60947;-67
2024/01/22 10:56:17;;;;;;;26.90;12.10;;;;;;;5.33;41.98;101881.77;108158;1251;60422;-66
2024/01/22 10:58:46;;;;;;;36.50;16.00;;;;;;;4.93;42.91;101883.35;108174;1256;75779;-66
2024/01/22 11:01:19;;;;;;;38.70;18.50;;;;;;;4.88;43.29;101880.84;108111;1251;70700;-67
2024/01/22 11:03:49;;;;;;;39.20;18.20;;;;;;;5.25;43.08;101877.85;108165;1251;73156;-67
2024/01/22 11:06:23;;;;;;;30.60;13.60;;;;;;;5.18;43.34;101878.29;108136;1251;60475;-66
2024/01/22 11:08:52;;;;;;;37.30;15.20;;;;;;;4.88;43.70;101884.83;108215;1251;62537;-66
2024/01/22 11:11:29;;;;;;;25.10;11.30;;;;;;;4.94;43.58;101879.00;108181;1251;74284;-66
2024/01/22 11:14:01;;;;;;;29.60;12.80;;;;;;;4.33;45.01;101875.63;108177;1251;67927;-67
2024/01/22 11:16:30;;;;;;;35.50;14.00;;;;;;;4.24;45.47;101871.31;108149;1253;72805;-67